createdAt,value
2018-07-21T00:02:22.427Z,24.10
2018-07-21T00:04:55.141Z,21.77
2018-07-21T00:07:27.751Z,23.33
2018-07-21T00:10:03.520Z,23.20
2018-07-21T00:12:38.292Z,22.43
2018-07-21T00:15:10.813Z,24.12
2018-07-21T00:17:47.972Z,20.55
2018-07-21T00:20:21.913Z,18.60
2018-07-21T00:22:54.984Z,23.27
2018-07-21T00:25:27.900Z,23.50
2018-07-21T00:28:00.863Z,25.00
2018-07-21T00:30:34.877Z,26.37
2018-07-21T00:33:07.423Z,33.93
2018-07-21T00:35:42.054Z,32.80
2018-07-21T00:38:15.824Z,33.97
2018-07-21T00:40:48.487Z,32.43
2018-07-21T00:43:23.024Z,26.13
2018-07-21T00:45:56.799Z,31.60
2018-07-21T00:48:30.199Z,28.70
2018-07-21T00:51:04.121Z,36.30
2018-07-21T00:53:37.326Z,35.60
2018-07-21T00:56:10.817Z,34.63
2018-07-21T00:58:45.700Z,34.60
2018-07-21T01:01:19.158Z,37.58
2018-07-21T01:03:51.623Z,33.50
2018-07-21T01:06:24.625Z,38.93
2018-07-21T01:08:57.139Z,36.87
2018-07-21T01:11:29.840Z,37.83
2018-07-21T01:14:03.735Z,34.37
2018-07-21T01:16:36.453Z,33.33
2018-07-21T01:19:10.128Z,34.03
2018-07-21T01:21:42.981Z,34.80
2018-07-21T01:24:16.227Z,32.72
2018-07-21T01:26:48.754Z,31.60
2018-07-21T01:29:21.603Z,31.00
2018-07-21T01:31:55.881Z,33.43
2018-07-21T01:34:30.955Z,30.73
2018-07-21T01:37:03.805Z,37.77
2018-07-21T01:39:36.380Z,36.43
2018-07-21T01:42:09.665Z,35.30
2018-07-21T01:44:49.037Z,36.30
2018-07-21T01:47:22.185Z,33.03
2018-07-21T01:49:55.281Z,32.20
2018-07-21T01:52:29.205Z,32.73
2018-07-21T01:55:01.726Z,30.57
2018-07-21T01:57:34.263Z,30.98
2018-07-21T02:00:07.520Z,29.70
2018-07-21T02:02:40.316Z,31.00
2018-07-21T02:05:13.207Z,23.80
2018-07-21T02:07:46.835Z,25.07
2018-07-21T02:10:20.389Z,28.13
2018-07-21T02:12:53.089Z,24.37
2018-07-21T02:15:26.644Z,27.70
2018-07-21T02:17:59.196Z,25.00
2018-07-21T02:20:32.620Z,25.80
2018-07-21T02:23:05.668Z,27.67
2018-07-21T02:25:38.267Z,29.42
2018-07-21T02:28:10.789Z,25.33
2018-07-21T02:30:43.684Z,28.03
2018-07-21T02:33:16.312Z,35.60
2018-07-21T02:35:48.816Z,35.83
2018-07-21T02:38:22.680Z,42.17
2018-07-21T02:40:55.246Z,34.83
2018-07-21T02:43:28.073Z,36.90
2018-07-21T02:46:01.177Z,32.43
2018-07-21T02:48:33.566Z,44.33
2018-07-21T02:51:06.239Z,48.33
2018-07-21T02:53:39.033Z,48.08
2018-07-21T02:56:14.069Z,40.43
2018-07-21T02:58:46.790Z,44.93
2018-07-21T03:01:19.631Z,51.28
2018-07-21T03:03:53.411Z,39.23
2018-07-21T03:06:26.028Z,36.10
2018-07-21T03:09:00.840Z,35.27
2018-07-21T03:11:35.016Z,37.93
2018-07-21T03:14:07.416Z,41.27
2018-07-21T03:16:39.992Z,48.08
2018-07-21T03:19:13.625Z,48.73
2018-07-21T03:21:46.167Z,55.03
2018-07-21T03:24:18.624Z,59.43
2018-07-21T03:26:52.488Z,63.05
2018-07-21T03:29:25.060Z,63.67
2018-07-21T03:31:57.511Z,56.67
2018-07-21T03:34:30.314Z,60.12
2018-07-21T03:37:02.813Z,60.17
2018-07-21T03:39:35.220Z,44.43
2018-07-21T03:42:08.252Z,53.20
2018-07-21T03:44:40.905Z,51.67
2018-07-21T03:47:15.627Z,42.33
2018-07-21T03:49:50.111Z,56.63
2018-07-21T03:52:23.484Z,96.17
2018-07-21T03:54:56.988Z,122.70
2018-07-21T03:57:31.348Z,112.00
2018-07-21T04:00:06.717Z,110.57
2018-07-21T04:02:39.218Z,97.87
2018-07-21T04:05:36.480Z,85.50
2018-07-21T04:08:08.965Z,87.53
2018-07-21T04:10:41.597Z,87.00
2018-07-21T04:13:16.415Z,96.40
2018-07-21T04:15:49.159Z,117.43
2018-07-21T04:18:22.347Z,117.50
2018-07-21T04:21:05.768Z,102.27
2018-07-21T04:23:38.901Z,96.93
2018-07-21T04:26:12.337Z,108.10
2018-07-21T04:28:46.047Z,96.80
2018-07-21T04:31:19.069Z,73.40
2018-07-21T04:33:53.637Z,65.45
2018-07-21T04:36:26.525Z,58.23
2018-07-21T04:39:00.263Z,54.07
2018-07-21T04:41:33.018Z,58.33
2018-07-21T04:44:06.678Z,62.33
2018-07-21T04:46:39.561Z,77.20
2018-07-21T04:49:12.879Z,85.67
2018-07-21T04:51:46.604Z,80.85
2018-07-21T04:54:18.952Z,92.97
2018-07-21T04:56:52.919Z,81.22
2018-07-21T04:59:26.103Z,71.77
2018-07-21T05:01:58.837Z,102.57
2018-07-21T05:04:39.112Z,64.28
2018-07-21T05:07:11.936Z,85.75
2018-07-21T05:09:45.343Z,72.23
2018-07-21T05:12:17.962Z,63.97
2018-07-21T05:14:51.645Z,59.75
2018-07-21T05:17:27.604Z,51.42
2018-07-21T05:20:00.260Z,40.57
2018-07-21T05:22:35.132Z,48.80
2018-07-21T05:25:07.612Z,52.30
2018-07-21T05:27:41.019Z,53.80
2018-07-21T05:30:16.334Z,50.10
2018-07-21T05:32:49.576Z,53.38
2018-07-21T05:35:22.093Z,51.47
2018-07-21T05:37:54.860Z,49.83
2018-07-21T05:40:27.439Z,43.07
2018-07-21T05:43:00.548Z,44.77
2018-07-21T05:45:33.424Z,43.70
2018-07-21T05:48:06.020Z,44.40
2018-07-21T05:50:40.221Z,43.33
2018-07-21T05:53:14.655Z,40.13
2018-07-21T05:55:47.087Z,46.17
2018-07-21T05:58:20.017Z,36.67
2018-07-21T06:00:52.812Z,33.30
2018-07-21T06:03:26.988Z,41.20
2018-07-21T06:06:01.552Z,35.43
2018-07-21T06:08:34.443Z,37.70
2018-07-21T06:11:07.532Z,37.83
2018-07-21T06:13:42.177Z,33.83
2018-07-21T06:16:15.716Z,34.03
2018-07-21T06:18:48.924Z,33.63
2018-07-21T06:21:22.825Z,36.33
2018-07-21T06:23:56.249Z,31.10
2018-07-21T06:26:29.776Z,31.30
2018-07-21T06:29:03.388Z,31.80
2018-07-21T06:31:37.028Z,29.73
2018-07-21T06:34:11.111Z,29.90
2018-07-21T06:36:44.092Z,32.00
2018-07-21T06:39:17.059Z,31.20
2018-07-21T06:41:50.636Z,27.87
2018-07-21T06:44:23.289Z,26.48
2018-07-21T06:46:56.244Z,26.47
2018-07-21T06:49:28.758Z,27.00
2018-07-21T06:52:02.715Z,23.67
2018-07-21T06:54:36.830Z,28.50
2018-07-21T06:57:09.412Z,24.07
2018-07-21T06:59:42.055Z,24.20
2018-07-21T07:02:15.160Z,22.23
2018-07-21T07:04:47.762Z,21.60
2018-07-21T07:07:21.325Z,21.87
2018-07-21T07:09:54.377Z,23.65
2018-07-21T07:12:27.848Z,23.55
2018-07-21T07:15:00.598Z,27.13
2018-07-21T07:17:35.960Z,24.13
2018-07-21T07:20:08.498Z,26.60
2018-07-21T07:22:41.381Z,22.77
2018-07-21T07:25:15.024Z,23.33
2018-07-21T07:27:50.452Z,23.63
2018-07-21T07:30:24.762Z,25.37
2018-07-21T07:32:59.547Z,26.33
2018-07-21T07:35:32.990Z,21.33
2018-07-21T07:38:06.843Z,22.57
2018-07-21T07:40:39.275Z,21.17
2018-07-21T07:43:12.793Z,21.57
2018-07-21T07:45:46.481Z,19.30
2018-07-21T07:48:19.132Z,18.47
2018-07-21T07:50:52.421Z,19.63
2018-07-21T07:53:25.072Z,18.30
2018-07-21T07:56:00.115Z,20.07
2018-07-21T07:58:33.478Z,18.63
2018-07-21T08:01:07.453Z,19.03
2018-07-21T08:03:41.541Z,17.70
2018-07-21T08:06:16.263Z,18.23
2018-07-21T08:08:48.844Z,18.40
2018-07-21T08:11:21.364Z,17.10
2018-07-21T08:13:57.428Z,18.10
2018-07-21T08:16:32.369Z,17.97
2018-07-21T08:19:06.959Z,19.50
2018-07-21T08:21:41.460Z,21.57
2018-07-21T08:24:14.140Z,22.50
2018-07-21T08:26:46.678Z,16.70
2018-07-21T08:29:19.751Z,18.07
2018-07-21T08:31:52.344Z,21.73
2018-07-21T08:34:25.612Z,16.83
2018-07-21T08:36:58.792Z,17.53
2018-07-21T08:39:32.597Z,17.70
2018-07-21T08:42:05.085Z,14.57
2018-07-21T08:44:38.188Z,15.43
2018-07-21T08:47:12.908Z,16.73
2018-07-21T08:49:46.463Z,17.92
2018-07-21T08:52:20.694Z,19.43
2018-07-21T08:54:54.223Z,15.10
2018-07-21T08:57:27.997Z,14.77
2018-07-21T09:00:07.688Z,14.87
2018-07-21T09:02:42.758Z,19.17
2018-07-21T09:05:17.770Z,18.10
2018-07-21T09:07:52.024Z,15.57
2018-07-21T09:10:25.689Z,17.07
2018-07-21T09:12:58.788Z,12.80
2018-07-21T09:15:34.164Z,14.57
2018-07-21T09:18:06.641Z,14.47
2018-07-21T09:20:39.718Z,12.50
2018-07-21T09:23:14.487Z,14.43
2018-07-21T09:25:48.601Z,11.77
2018-07-21T09:28:24.449Z,11.03
2018-07-21T09:31:00.331Z,9.33
2018-07-21T09:33:36.211Z,8.60
2018-07-21T09:36:08.944Z,8.60
2018-07-21T09:38:41.525Z,12.10
2018-07-21T09:41:15.145Z,8.63
2018-07-21T09:43:49.256Z,9.47
2018-07-21T09:46:24.328Z,10.50
2018-07-21T09:48:58.862Z,11.73
2018-07-21T09:51:34.891Z,13.53
2018-07-21T09:54:08.812Z,12.13
2018-07-21T09:56:46.344Z,8.03
2018-07-21T09:59:18.945Z,11.87
2018-07-21T10:01:51.548Z,8.95
2018-07-21T10:04:29.203Z,8.47
2018-07-21T10:07:02.455Z,8.90
2018-07-21T10:09:36.556Z,10.03
2018-07-21T10:12:10.328Z,10.38
2018-07-21T10:14:44.676Z,10.80
2018-07-21T10:17:17.497Z,13.23
2018-07-21T10:19:52.167Z,11.63
2018-07-21T10:22:27.724Z,12.40
2018-07-21T10:25:08.329Z,11.27
2018-07-21T10:27:50.172Z,9.60
2018-07-21T10:30:25.105Z,9.97
2018-07-21T10:32:59.348Z,10.03
2018-07-21T10:35:33.164Z,8.80
2018-07-21T10:38:11.322Z,8.90
2018-07-21T10:40:43.748Z,7.70
2018-07-21T10:43:17.032Z,8.60
2018-07-21T10:45:52.736Z,10.00
2018-07-21T10:48:28.815Z,10.67
2018-07-21T10:51:10.417Z,11.67
2018-07-21T10:53:43.885Z,10.07
2018-07-21T10:56:18.193Z,7.53
2018-07-21T10:58:56.015Z,9.60
2018-07-21T11:01:32.081Z,8.90
2018-07-21T11:04:13.878Z,8.80
2018-07-21T11:06:49.749Z,10.33
2018-07-21T11:09:25.445Z,8.17
2018-07-21T11:12:05.684Z,8.33
2018-07-21T11:14:50.450Z,7.97
2018-07-21T11:17:32.647Z,7.80
2018-07-21T11:20:15.216Z,7.90
2018-07-21T11:23:02.033Z,7.63
2018-07-21T11:25:55.812Z,9.40
2018-07-21T11:28:38.986Z,6.37
2018-07-21T11:31:16.272Z,5.97
2018-07-21T11:33:54.850Z,8.20
2018-07-21T11:36:31.058Z,8.83
2018-07-21T11:39:07.897Z,8.50
2018-07-21T11:41:41.325Z,7.77
2018-07-21T11:44:16.217Z,6.33
2018-07-21T11:46:53.459Z,5.50
2018-07-21T11:49:30.950Z,6.75
2018-07-21T11:52:08.585Z,7.07
2018-07-21T11:54:42.123Z,6.03
2018-07-21T11:57:16.718Z,6.28
2018-07-21T11:59:50.093Z,5.85
2018-07-21T12:02:22.945Z,6.93
2018-07-21T12:04:55.938Z,6.13
2018-07-21T12:07:31.809Z,6.70
2018-07-21T12:10:08.153Z,5.70
2018-07-21T12:12:41.100Z,6.23
2018-07-21T12:15:15.855Z,7.40
2018-07-21T12:17:51.268Z,8.03
2018-07-21T12:20:23.904Z,6.93
2018-07-21T12:22:59.231Z,6.97
2018-07-21T12:25:34.508Z,6.93
2018-07-21T12:28:09.603Z,10.20
2018-07-21T12:30:45.008Z,5.87
2018-07-21T12:33:22.633Z,6.20
2018-07-21T12:35:58.705Z,6.00
2018-07-21T12:38:34.154Z,9.63
2018-07-21T12:41:08.380Z,7.17
2018-07-21T12:43:42.672Z,6.83
2018-07-21T12:46:17.376Z,5.70
2018-07-21T12:48:51.468Z,7.20
2018-07-21T12:51:30.548Z,6.83
2018-07-21T12:54:10.986Z,7.22
2018-07-21T12:56:44.808Z,8.00
2018-07-21T12:59:19.232Z,6.13
2018-07-21T13:01:56.081Z,5.50
2018-07-21T13:04:33.792Z,8.05
2018-07-21T13:07:16.393Z,6.63
2018-07-21T13:09:54.201Z,7.45
2018-07-21T13:12:31.842Z,6.70
2018-07-21T13:15:12.316Z,6.80
2018-07-21T13:17:46.905Z,6.73
2018-07-21T13:20:22.616Z,8.50
2018-07-21T13:22:58.396Z,5.80
2018-07-21T13:25:33.624Z,6.23
2018-07-21T13:28:20.405Z,8.83
2018-07-21T13:30:54.622Z,7.60
2018-07-21T13:33:27.861Z,5.90
2018-07-21T13:36:00.809Z,6.07
2018-07-21T13:38:34.356Z,6.37
2018-07-21T13:41:09.148Z,7.07
2018-07-21T13:43:43.353Z,6.93
2018-07-21T13:46:18.791Z,5.93
2018-07-21T13:48:52.419Z,5.53
2018-07-21T13:51:25.934Z,5.97
2018-07-21T13:54:01.076Z,5.90
2018-07-21T13:56:35.764Z,5.50
2018-07-21T13:59:08.446Z,6.20
2018-07-21T14:01:42.740Z,7.50
2018-07-21T14:04:17.648Z,8.23
2018-07-21T14:07:00.848Z,5.77
2018-07-21T14:09:34.499Z,6.30
2018-07-21T14:12:07.700Z,5.80
2018-07-21T14:14:41.620Z,7.40
2018-07-21T14:17:14.192Z,8.27
2018-07-21T14:19:46.831Z,6.20
2018-07-21T14:22:21.311Z,9.47
2018-07-21T14:24:54.084Z,6.50
2018-07-21T14:27:29.449Z,7.67
2018-07-21T14:30:05.431Z,5.47
2018-07-21T14:32:37.992Z,6.47
2018-07-21T14:35:11.872Z,6.97
2018-07-21T14:37:46.736Z,5.83
2018-07-21T14:40:22.933Z,5.70
2018-07-21T14:42:58.939Z,5.23
2018-07-21T14:45:37.289Z,5.17
2018-07-21T14:48:15.353Z,6.83
2018-07-21T14:50:51.560Z,8.00
2018-07-21T14:53:25.613Z,8.07
2018-07-21T14:56:00.648Z,6.27
2018-07-21T14:58:35.009Z,6.20
2018-07-21T15:01:08.778Z,9.10
2018-07-21T15:03:42.305Z,6.95
2018-07-21T15:06:15.308Z,7.67
2018-07-21T15:08:49.622Z,5.33
2018-07-21T15:11:24.743Z,6.97
2018-07-21T15:14:00.642Z,6.07
2018-07-21T15:16:35.111Z,5.50
2018-07-21T15:19:11.764Z,5.87
2018-07-21T15:21:48.590Z,6.37
2018-07-21T15:24:21.927Z,5.77
2018-07-21T15:27:08.505Z,5.67
2018-07-21T15:29:42.820Z,6.43
2018-07-21T15:32:19.009Z,6.10
2018-07-21T15:34:53.520Z,6.10
2018-07-21T15:37:29.342Z,6.60
2018-07-21T15:40:06.649Z,6.50
2018-07-21T15:42:40.473Z,6.40
2018-07-21T15:45:30.217Z,5.30
2018-07-21T15:48:07.497Z,6.07
2018-07-21T15:50:40.119Z,6.47
2018-07-21T15:53:14.332Z,6.03
2018-07-21T15:55:48.392Z,6.90
2018-07-21T15:58:24.764Z,6.32
2018-07-21T16:00:58.661Z,5.83
2018-07-21T16:03:34.465Z,6.43
2018-07-21T16:06:08.825Z,5.43
2018-07-21T16:08:43.729Z,6.67
2018-07-21T16:11:16.293Z,6.23
2018-07-21T16:13:49.835Z,8.03
2018-07-21T16:16:25.276Z,5.37
2018-07-21T16:19:04.620Z,5.67
2018-07-21T16:21:39.931Z,6.00
2018-07-21T16:24:17.648Z,5.87
2018-07-21T16:26:52.564Z,5.40
2018-07-21T16:29:25.180Z,5.27
2018-07-21T16:31:58.841Z,5.93
2018-07-21T16:34:31.346Z,7.43
2018-07-21T16:37:06.727Z,6.57
2018-07-21T16:39:43.070Z,5.57
2018-07-21T16:42:15.665Z,7.10
2018-07-21T16:44:50.733Z,6.30
2018-07-21T16:47:26.861Z,5.68
2018-07-21T16:50:00.634Z,5.97
2018-07-21T16:52:34.633Z,5.73
2018-07-21T16:55:08.868Z,6.73
2018-07-21T16:57:42.817Z,6.60
2018-07-21T17:00:18.176Z,5.50
2018-07-21T17:02:51.423Z,5.62
2018-07-21T17:05:24.689Z,5.40
2018-07-21T17:07:57.478Z,5.53
2018-07-21T17:10:30.619Z,6.13
2018-07-21T17:13:06.573Z,4.90
2018-07-21T17:15:40.124Z,5.33
2018-07-21T17:18:17.422Z,5.50
2018-07-21T17:20:57.771Z,5.77
2018-07-21T17:23:36.025Z,5.23
2018-07-21T17:26:11.736Z,4.83
2018-07-21T17:28:45.606Z,4.90
2018-07-21T17:31:20.278Z,5.00
2018-07-21T17:33:53.354Z,4.70
2018-07-21T17:36:27.117Z,5.87
2018-07-21T17:39:02.077Z,4.40
2018-07-21T17:41:38.677Z,5.30
2018-07-21T17:44:11.785Z,4.57
2018-07-21T17:46:45.967Z,4.50
2018-07-21T17:49:18.998Z,4.83
2018-07-21T17:51:52.620Z,4.93
2018-07-21T17:54:25.568Z,4.23
2018-07-21T17:56:59.917Z,4.60
2018-07-21T17:59:35.848Z,5.10
2018-07-21T18:02:09.004Z,4.33
2018-07-21T18:04:42.817Z,4.63
2018-07-21T18:07:17.740Z,4.60
2018-07-21T18:09:50.686Z,5.20
2018-07-21T18:12:23.200Z,5.77
2018-07-21T18:14:58.367Z,6.20
2018-07-21T18:17:32.034Z,6.30
2018-07-21T18:20:07.824Z,7.40
2018-07-21T18:22:40.824Z,7.50
2018-07-21T18:25:16.069Z,10.10
2018-07-21T18:27:48.570Z,7.13
2018-07-21T18:30:32.647Z,7.10
2018-07-21T18:33:06.896Z,7.07
2018-07-21T18:35:42.742Z,7.85
2018-07-21T18:38:16.936Z,8.07
2018-07-21T18:40:50.836Z,8.37
2018-07-21T18:43:25.211Z,8.20
2018-07-21T18:45:58.030Z,7.93
2018-07-21T18:48:34.293Z,8.67
2018-07-21T18:51:06.967Z,9.40
2018-07-21T18:53:43.605Z,11.33
2018-07-21T18:56:17.414Z,9.43
2018-07-21T18:58:55.320Z,9.87
2018-07-21T19:01:33.595Z,10.97
2018-07-21T19:04:10.877Z,8.80
2018-07-21T19:06:43.432Z,7.83
2018-07-21T19:09:16.764Z,7.60
2018-07-21T19:11:57.473Z,10.33
2018-07-21T19:14:34.334Z,8.50
2018-07-21T19:17:13.156Z,11.30
2018-07-21T19:19:51.842Z,11.20
2018-07-21T19:22:36.516Z,12.73
2018-07-21T19:25:19.577Z,6.60
2018-07-21T19:27:54.459Z,5.60
2018-07-21T19:30:31.558Z,11.53
2018-07-21T19:33:05.862Z,4.60
2018-07-21T19:35:41.688Z,4.33
2018-07-21T19:38:15.836Z,3.70
2018-07-21T19:40:50.670Z,4.40
2018-07-21T19:43:26.232Z,4.00
2018-07-21T19:46:01.090Z,4.10
2018-07-21T19:48:35.016Z,4.73
2018-07-21T19:51:09.645Z,4.07
2018-07-21T19:53:44.104Z,4.33
2018-07-21T19:56:18.629Z,5.50
2018-07-21T19:58:54.147Z,5.77
2018-07-21T20:01:28.733Z,5.07
2018-07-21T20:04:01.563Z,5.80
2018-07-21T20:06:41.748Z,5.57
2018-07-21T20:09:17.413Z,5.13
2018-07-21T20:11:51.917Z,7.97
2018-07-21T20:14:30.333Z,6.40
2018-07-21T20:17:06.020Z,5.90
2018-07-21T20:19:42.312Z,5.63
2018-07-21T20:22:17.346Z,6.90
2018-07-21T20:24:52.261Z,5.63
2018-07-21T20:27:29.976Z,6.90
2018-07-21T20:30:09.160Z,5.70
2018-07-21T20:32:43.266Z,4.32
2018-07-21T20:35:17.648Z,4.23
2018-07-21T20:37:52.693Z,5.07
2018-07-21T20:40:26.026Z,4.90
2018-07-21T20:43:03.733Z,5.10
2018-07-21T20:45:38.197Z,4.90
2018-07-21T20:48:12.463Z,5.53
2018-07-21T20:50:52.336Z,6.30
2018-07-21T20:53:29.784Z,8.60
2018-07-21T20:56:06.122Z,7.60
2018-07-21T20:58:42.392Z,5.03
2018-07-21T21:01:17.464Z,5.93
2018-07-21T21:03:51.352Z,5.17
2018-07-21T21:06:28.468Z,6.33
2018-07-21T21:09:09.913Z,5.97
2018-07-21T21:11:42.753Z,5.80
2018-07-21T21:14:22.268Z,6.40
2018-07-21T21:16:58.809Z,6.33
2018-07-21T21:19:33.513Z,6.20
2018-07-21T21:22:09.702Z,7.03
2018-07-21T21:24:49.341Z,6.83
2018-07-21T21:27:23.610Z,5.80
2018-07-21T21:30:00.069Z,8.07
2018-07-21T21:32:37.237Z,7.37
2018-07-21T21:35:12.460Z,7.70
2018-07-21T21:37:47.791Z,9.40
2018-07-21T21:40:22.679Z,10.53
2018-07-21T21:42:59.561Z,9.97
2018-07-21T21:45:33.225Z,10.63
2018-07-21T21:48:07.502Z,9.73
2018-07-21T21:50:40.077Z,10.60
2018-07-21T21:53:17.224Z,9.57
2018-07-21T21:55:52.176Z,13.70
2018-07-21T21:58:24.730Z,11.32
2018-07-21T22:01:11.558Z,10.17
2018-07-21T22:03:44.634Z,9.13
2018-07-21T22:06:21.535Z,9.30
2018-07-21T22:08:55.667Z,8.10
2018-07-21T22:11:31.825Z,10.17
2018-07-21T22:14:08.232Z,9.83
2018-07-21T22:16:40.899Z,11.57
2018-07-21T22:19:17.692Z,8.87
2018-07-21T22:21:53.975Z,7.03
2018-07-21T22:24:29.526Z,6.90
2018-07-21T22:27:03.477Z,8.57
2018-07-21T22:29:38.899Z,8.73
2018-07-21T22:32:11.629Z,9.52
2018-07-21T22:34:45.331Z,12.90
2018-07-21T22:37:18.460Z,13.70
2018-07-21T22:39:52.005Z,14.73
2018-07-21T22:42:28.536Z,15.47
2018-07-21T22:45:06.129Z,15.98
2018-07-21T22:47:38.980Z,15.43
2018-07-21T22:50:14.980Z,14.30
2018-07-21T22:52:48.855Z,13.77
2018-07-21T22:55:21.462Z,11.77
2018-07-21T22:57:54.431Z,9.93
2018-07-21T23:00:27.467Z,11.07
2018-07-21T23:03:01.657Z,10.00
2018-07-21T23:06:03.602Z,10.07
2018-07-21T23:08:38.073Z,10.20
2018-07-21T23:11:22.221Z,8.80
2018-07-21T23:13:58.716Z,12.60
2018-07-21T23:16:31.505Z,10.30
2018-07-21T23:19:05.328Z,9.80
2018-07-21T23:21:37.877Z,10.60
2018-07-21T23:24:11.767Z,9.07
2018-07-21T23:26:45.717Z,8.10
2018-07-21T23:29:19.793Z,10.50
2018-07-21T23:31:53.349Z,12.23
2018-07-21T23:34:26.996Z,9.93
2018-07-21T23:37:02.298Z,10.00
2018-07-21T23:39:34.931Z,10.93
2018-07-21T23:42:08.500Z,10.23
2018-07-21T23:44:42.408Z,12.10
2018-07-21T23:47:15.774Z,10.87
2018-07-21T23:49:48.924Z,17.67
2018-07-21T23:52:22.190Z,15.07
2018-07-21T23:54:56.618Z,12.70
2018-07-21T23:57:33.789Z,18.05
